Time;durP1;ratioP1;P1;durP2;ratioP2;P2;SDS_P1;SDS_P2;PMS_P1;PMS_P2;Temp;Humidity;BMP_temperature;BMP_pressure;BME280_temperature;BME280_humidity;BME280_pressure;Samples;Min_cycle;Max_cycle;Signal;HPM_P1;HPM_P2
2023/03/20 00:01:56;;;;;;;37.67;8.43;;;15.90;57.50;;;;;;5048289;28;20240;-91
2023/03/20 00:04:28;;;;;;;36.13;7.90;;;15.90;57.50;;;;;;5048551;28;20755;-90
2023/03/20 00:06:56;;;;;;;42.10;8.53;;;15.90;57.50;;;;;;5048034;28;20616;-91
2023/03/20 00:09:24;;;;;;;33.57;7.67;;;15.90;57.50;;;;;;5048646;28;20207;-91
2023/03/20 00:11:54;;;;;;;48.93;9.47;;;15.90;57.50;;;;;;5043597;28;20570;-90
2023/03/20 00:14:23;;;;;;;44.20;7.90;;;15.80;57.50;;;;;;5045768;28;20246;-91
2023/03/20 00:16:52;;;;;;;36.90;8.00;;;15.80;57.40;;;;;;5048064;28;20202;-91
2023/03/20 00:19:22;;;;;;;38.10;8.40;;;15.80;57.40;;;;;;5047595;28;20235;-91
2023/03/20 00:21:52;;;;;;;38.83;7.90;;;15.80;57.40;;;;;;5053714;28;20203;-91
2023/03/20 00:24:47;;;;;;;38.37;8.27;;;15.80;57.40;;;;;;5048049;28;20631;-90
2023/03/20 00:27:16;;;;;;;44.37;8.97;;;15.80;57.40;;;;;;5043814;28;20204;-90
2023/03/20 00:29:44;;;;;;;40.00;8.87;;;15.90;57.50;;;;;;5049846;28;20311;-91
2023/03/20 00:32:12;;;;;;;29.40;7.83;;;15.80;57.40;;;;;;5050266;28;20231;-91
2023/03/20 00:34:42;;;;;;;35.10;7.90;;;15.70;57.40;;;;;;5051458;28;20672;-91
2023/03/20 00:37:26;;;;;;;32.90;7.57;;;15.70;57.40;;;;;;5052305;28;20214;-91
2023/03/20 00:39:55;;;;;;;32.53;7.17;;;15.70;57.40;;;;;;5050473;28;20312;-91
2023/03/20 00:42:23;;;;;;;64.13;10.63;;;15.80;57.40;;;;;;5050008;28;20224;-91
2023/03/20 00:44:53;;;;;;;41.73;8.83;;;15.70;57.30;;;;;;5048866;28;20207;-91
2023/03/20 00:47:23;;;;;;;39.50;8.93;;;15.80;57.50;;;;;;5043387;28;20215;-92
2023/03/20 00:49:52;;;;;;;35.40;8.27;;;15.70;57.40;;;;;;5044362;28;20224;-91
2023/03/20 00:52:20;;;;;;;64.97;10.53;;;15.80;57.50;;;;;;5049713;28;20233;-91
2023/03/20 00:55:07;;;;;;;43.50;8.50;;;15.70;57.40;;;;;;5050962;28;20673;-91
2023/03/20 00:57:38;;;;;;;38.83;8.33;;;15.70;57.40;;;;;;5042706;28;20316;-90
2023/03/20 01:00:08;;;;;;;33.37;8.03;;;15.70;57.40;;;;;;5049804;28;20204;-91
2023/03/20 01:02:35;;;;;;;33.43;7.30;;;15.70;57.40;;;;;;5046086;28;20323;-91
2023/03/20 01:05:04;;;;;;;36.60;8.23;;;15.70;57.40;;;;;;5051285;28;20662;-90
2023/03/20 01:07:31;;;;;;;59.83;9.77;;;15.70;57.40;;;;;;5039253;28;20220;-91
2023/03/20 01:10:00;;;;;;;45.30;8.50;;;15.70;57.30;;;;;;5048051;28;20311;-91
2023/03/20 01:12:30;;;;;;;39.80;8.27;;;15.70;57.40;;;;;;5041007;28;20287;-91
2023/03/20 01:14:59;;;;;;;34.73;7.90;;;15.70;57.40;;;;;;5050976;28;20204;-90
2023/03/20 01:17:28;;;;;;;47.80;9.33;;;15.70;57.40;;;;;;5050633;28;20209;-91
2023/03/20 01:19:55;;;;;;;36.77;7.57;;;15.60;57.30;;;;;;5050549;28;20231;-91
2023/03/20 01:22:22;;;;;;;55.27;8.93;;;15.60;57.30;;;;;;5048728;28;20648;-90
2023/03/20 01:24:50;;;;;;;44.90;8.43;;;15.60;57.30;;;;;;5050172;28;20212;-91
2023/03/20 01:27:20;;;;;;;55.50;8.93;;;15.60;57.30;;;;;;5046807;28;20679;-90
2023/03/20 01:29:47;;;;;;;35.37;8.17;;;15.60;57.30;;;;;;5048798;28;20213;-90
2023/03/20 01:32:16;;;;;;;40.90;8.33;;;15.60;57.30;;;;;;5050155;28;20232;-90
2023/03/20 01:34:46;;;;;;;50.20;9.63;;;15.60;57.30;;;;;;5049237;28;20208;-91
2023/03/20 01:37:18;;;;;;;36.50;7.60;;;15.50;57.20;;;;;;5050311;28;20210;-91
2023/03/20 01:39:45;;;;;;;34.73;8.20;;;15.60;57.30;;;;;;5049098;28;20201;-90
2023/03/20 01:42:17;;;;;;;46.67;9.03;;;15.60;57.30;;;;;;5050403;28;20583;-90
2023/03/20 01:44:50;;;;;;;43.53;8.53;;;15.60;57.90;;;;;;5049487;28;20261;-91
2023/03/20 01:47:19;;;;;;;38.73;8.30;;;15.60;57.30;;;;;;5050436;28;20551;-90
2023/03/20 01:50:21;;;;;;;44.90;8.20;;;15.50;57.30;;;;;;5048046;28;20219;-91
2023/03/20 01:52:50;;;;;;;35.93;7.43;;;15.60;57.30;;;;;;5049038;28;20741;-90
2023/03/20 01:55:19;;;;;;;29.40;7.30;;;15.50;57.30;;;;;;5049291;28;20204;-91
2023/03/20 01:57:46;;;;;;;41.73;8.73;;;15.50;57.30;;;;;;5050718;28;20287;-91
2023/03/20 02:00:16;;;;;;;35.30;7.70;;;15.50;57.20;;;;;;5048895;28;20204;-90
2023/03/20 02:02:46;;;;;;;42.33;8.43;;;15.50;57.30;;;;;;5043925;28;20655;-92
2023/03/20 02:05:16;;;;;;;33.00;7.83;;;15.60;57.30;;;;;;5030291;28;20296;-91
2023/03/20 02:07:49;;;;;;;37.57;8.17;;;15.50;57.30;;;;;;5034351;28;20215;-91
2023/03/20 02:10:20;;;;;;;32.90;7.43;;;15.50;57.20;;;;;;5048511;28;20289;-91
2023/03/20 02:12:48;;;;;;;43.83;8.33;;;15.50;57.20;;;;;;5045818;28;20263;-89
2023/03/20 02:15:17;;;;;;;35.57;7.30;;;15.50;57.30;;;;;;5049696;28;20208;-90
2023/03/20 02:17:45;;;;;;;33.53;7.77;;;15.40;57.10;;;;;;5049459;28;20211;-90
2023/03/20 02:20:22;;;;;;;41.07;8.13;;;15.50;57.30;;;;;;5048130;28;20196;-90
2023/03/20 02:23:42;;;;;;;37.87;7.97;;;15.50;57.30;;;;;;5049850;28;20209;-91
2023/03/20 02:26:34;;;;;;;45.20;8.67;;;15.50;57.30;;;;;;4959295;28;20212;-91
2023/03/20 02:29:46;;;;;;;55.63;9.50;;;15.40;57.20;;;;;;5029635;28;20266;-90
2023/03/20 02:32:52;;;;;;;73.33;10.47;;;15.40;57.20;;;;;;4982969;28;20232;-90
2023/03/20 02:36:06;;;;;;;34.03;7.70;;;15.40;57.20;;;;;;5049201;28;20209;-90
2023/03/20 02:39:01;;;;;;;62.40;9.60;;;15.50;57.30;;;;;;5044645;28;21044;-91
2023/03/20 02:41:32;;;;;;;44.83;8.77;;;15.40;57.20;;;;;;5038163;28;20221;-91
2023/03/20 02:44:07;;;;;;;35.70;7.40;;;15.40;57.20;;;;;;5046405;28;20207;-90
2023/03/20 02:46:46;;;;;;;36.17;7.60;;;15.40;57.20;;;;;;5049537;28;20201;-90
2023/03/20 02:49:25;;;;;;;30.30;7.27;;;15.40;57.20;;;;;;5048556;28;20207;-91
2023/03/20 02:52:02;;;;;;;37.80;7.93;;;15.40;57.20;;;;;;5047225;28;20233;-91
2023/03/20 02:54:41;;;;;;;31.17;7.93;;;15.30;57.10;;;;;;5046300;28;20213;-91
2023/03/20 02:57:16;;;;;;;44.80;8.83;;;15.30;57.10;;;;;;5048657;28;20574;-91
2023/03/20 02:59:47;;;;;;;40.37;7.70;;;15.40;57.20;;;;;;5047257;28;20732;-91
2023/03/20 03:02:19;;;;;;;44.33;8.00;;;15.40;57.20;;;;;;5047589;28;20234;-91
2023/03/20 03:04:51;;;;;;;43.33;8.13;;;15.40;57.20;;;;;;5047424;28;20197;-90
2023/03/20 03:07:22;;;;;;;42.63;7.87;;;15.30;57.10;;;;;;5048177;28;20295;-90
2023/03/20 03:09:54;;;;;;;41.43;8.63;;;15.30;57.10;;;;;;5047693;28;20200;-91
2023/03/20 03:12:30;;;;;;;35.07;7.30;;;15.40;57.20;;;;;;5046102;28;20586;-91
2023/03/20 03:15:03;;;;;;;40.43;7.93;;;15.30;57.20;;;;;;5047847;28;20243;-90
2023/03/20 03:17:36;;;;;;;39.43;7.97;;;15.30;57.10;;;;;;5044520;28;20253;-90
2023/03/20 03:20:10;;;;;;;40.57;7.73;;;15.30;57.10;;;;;;5042062;28;20612;-91
2023/03/20 03:22:37;;;;;;;50.17;8.67;;;15.30;57.20;;;;;;5047129;28;20216;-91
2023/03/20 03:25:10;;;;;;;48.30;8.47;;;15.30;57.10;;;;;;5046470;28;20292;-90
2023/03/20 03:27:41;;;;;;;44.57;7.80;;;15.30;57.20;;;;;;5028623;28;20582;-91
2023/03/20 03:30:16;;;;;;;44.63;8.07;;;15.30;57.20;;;;;;5044757;28;20211;-90
2023/03/20 03:32:51;;;;;;;49.40;8.40;;;15.30;57.20;;;;;;5047471;28;20223;-91
2023/03/20 03:35:21;;;;;;;36.33;7.53;;;15.30;57.20;;;;;;5045855;28;20268;-90
2023/03/20 03:37:58;;;;;;;38.77;7.43;;;15.30;57.20;;;;;;5047325;28;20211;-91
2023/03/20 03:40:33;;;;;;;42.73;7.67;;;15.30;57.20;;;;;;5046953;28;20254;-90
2023/03/20 03:43:06;;;;;;;44.07;8.13;;;15.30;57.20;;;;;;5047147;28;20283;-90
2023/03/20 03:45:39;;;;;;;44.13;7.90;;;15.30;57.20;;;;;;5047501;28;20222;-91
2023/03/20 03:48:11;;;;;;;30.40;7.50;;;15.20;57.10;;;;;;5034650;28;20263;-91
2023/03/20 03:50:47;;;;;;;49.63;8.03;;;15.30;57.20;;;;;;5051228;28;20192;-90
2023/03/20 03:53:17;;;;;;;35.40;7.47;;;15.20;57.10;;;;;;5047425;28;20235;-90
2023/03/20 03:55:50;;;;;;;41.10;7.73;;;15.30;57.20;;;;;;5052219;28;20208;-90
2023/03/20 03:58:20;;;;;;;38.67;7.30;;;15.20;57.20;;;;;;5050635;28;20205;-90
2023/03/20 04:00:52;;;;;;;40.20;7.87;;;15.20;57.20;;;;;;5050918;28;20201;-91
2023/03/20 04:03:27;;;;;;;45.70;7.80;;;15.20;57.10;;;;;;5037897;28;20215;-90
2023/03/20 04:05:56;;;;;;;45.90;8.00;;;15.20;57.20;;;;;;5028598;28;20195;-91
2023/03/20 04:08:23;;;;;;;33.10;7.23;;;15.30;57.20;;;;;;5033546;28;20204;-91
2023/03/20 04:10:52;;;;;;;40.17;8.80;;;15.20;57.20;;;;;;5048199;28;20229;-91
2023/03/20 04:13:19;;;;;;;33.57;7.00;;;15.20;57.10;;;;;;5048861;28;20216;-90
2023/03/20 04:15:46;;;;;;;34.13;7.07;;;15.20;57.10;;;;;;5048950;28;20196;-91
2023/03/20 04:18:18;;;;;;;46.50;7.47;;;15.20;57.10;;;;;;5048405;28;20250;-91
2023/03/20 04:20:46;;;;;;;47.10;8.30;;;15.20;57.10;;;;;;5047621;28;20250;-91
2023/03/20 04:23:13;;;;;;;39.67;7.40;;;15.20;57.10;;;;;;5046449;28;20211;-91
2023/03/20 04:25:41;;;;;;;44.97;8.20;;;15.20;57.10;;;;;;5047465;28;20208;-91
2023/03/20 04:28:10;;;;;;;59.87;9.10;;;15.20;57.20;;;;;;5048219;28;20294;-90
2023/03/20 04:30:39;;;;;;;56.87;8.87;;;15.20;57.10;;;;;;5043634;28;20702;-90
2023/03/20 04:33:06;;;;;;;36.00;7.37;;;15.20;57.10;;;;;;5046044;28;20817;-90
2023/03/20 04:35:33;;;;;;;53.87;8.80;;;15.20;57.10;;;;;;5045402;28;20204;-90
2023/03/20 04:38:00;;;;;;;47.83;8.00;;;15.20;57.10;;;;;;5048032;28;20204;-91
2023/03/20 04:40:27;;;;;;;39.40;7.47;;;15.20;57.10;;;;;;5047419;28;20277;-91
2023/03/20 04:42:54;;;;;;;47.73;8.23;;;15.20;57.20;;;;;;5047872;28;20299;-90
2023/03/20 04:45:23;;;;;;;42.50;7.50;;;15.20;57.10;;;;;;5046854;28;20201;-91
2023/03/20 04:47:50;;;;;;;51.50;8.33;;;15.20;57.10;;;;;;5047691;28;20666;-91
2023/03/20 04:50:17;;;;;;;37.30;7.13;;;15.20;57.20;;;;;;5046909;28;20605;-91
2023/03/20 04:52:44;;;;;;;48.07;7.93;;;15.20;57.20;;;;;;5046717;28;20218;-91
2023/03/20 04:55:11;;;;;;;46.47;8.13;;;15.20;57.20;;;;;;5045471;28;20674;-91
2023/03/20 04:57:37;;;;;;;45.40;7.67;;;15.10;57.10;;;;;;5048058;28;20213;-91
2023/03/20 05:00:05;;;;;;;38.97;7.60;;;15.10;57.10;;;;;;5047769;28;20296;-91
2023/03/20 05:02:34;;;;;;;43.13;8.10;;;15.20;57.20;;;;;;5039174;28;20268;-91
2023/03/20 05:05:01;;;;;;;45.50;7.37;;;15.10;57.10;;;;;;5036801;28;20283;-90
2023/03/20 05:07:28;;;;;;;45.63;7.73;;;15.20;57.10;;;;;;5045647;28;20211;-90
2023/03/20 05:09:55;;;;;;;35.53;6.63;;;15.20;57.20;;;;;;5046414;28;20288;-91
2023/03/20 05:12:22;;;;;;;31.20;7.23;;;15.20;57.20;;;;;;5047508;28;20223;-91
2023/03/20 05:14:55;;;;;;;54.80;8.60;;;15.10;57.10;;;;;;5045393;28;20197;-90
2023/03/20 05:17:22;;;;;;;32.87;7.07;;;15.20;57.20;;;;;;5031986;28;20832;-91
2023/03/20 05:19:52;;;;;;;51.97;8.70;;;15.10;57.10;;;;;;5031593;28;20204;-91
2023/03/20 05:22:19;;;;;;;37.73;7.63;;;15.20;57.20;;;;;;5047807;28;20208;-91
2023/03/20 05:24:46;;;;;;;43.77;8.00;;;15.10;57.10;;;;;;5049938;28;20230;-92
2023/03/20 05:27:13;;;;;;;41.40;8.27;;;15.20;57.10;;;;;;5049268;28;20653;-91
2023/03/20 05:29:40;;;;;;;63.07;9.63;;;15.20;57.10;;;;;;5047712;28;20200;-91
2023/03/20 05:32:07;;;;;;;50.27;8.87;;;15.20;57.20;;;;;;5050334;28;20318;-91
2023/03/20 05:34:34;;;;;;;38.93;7.77;;;15.10;57.10;;;;;;5049876;28;20205;-91
2023/03/20 05:37:17;;;;;;;51.23;8.53;;;15.30;57.30;;;;;;5049318;28;20204;-91
2023/03/20 05:39:51;;;;;;;38.67;8.00;;;15.20;57.20;;;;;;5050076;28;20299;-91
2023/03/20 05:42:21;;;;;;;55.00;8.57;;;15.20;57.10;;;;;;5047946;28;20700;-91
2023/03/20 05:44:48;;;;;;;31.53;6.67;;;15.20;57.20;;;;;;5051249;28;20696;-91
2023/03/20 05:47:15;;;;;;;37.17;7.47;;;15.20;57.10;;;;;;5048764;28;20213;-91
2023/03/20 05:49:44;;;;;;;35.13;7.03;;;15.20;57.20;;;;;;5051249;28;20208;-91
2023/03/20 05:52:11;;;;;;;37.13;7.50;;;15.10;57.10;;;;;;5049025;28;20232;-91
2023/03/20 05:54:40;;;;;;;36.70;7.13;;;15.10;57.10;;;;;;5049881;28;20208;-91
2023/03/20 05:57:07;;;;;;;51.90;8.80;;;15.10;57.10;;;;;;5049794;28;20205;-91
2023/03/20 05:59:34;;;;;;;47.60;8.43;;;15.10;57.10;;;;;;5049927;28;20287;-91
2023/03/20 06:02:01;;;;;;;58.33;9.37;;;15.10;57.10;;;;;;5042352;28;20660;-91
2023/03/20 06:04:28;;;;;;;37.03;7.23;;;15.20;57.20;;;;;;5048398;28;20237;-91
2023/03/20 06:06:56;;;;;;;51.60;8.87;;;15.20;57.20;;;;;;5043768;28;20207;-91
2023/03/20 06:09:23;;;;;;;49.57;8.73;;;15.20;57.20;;;;;;5046226;28;20204;-92
2023/03/20 06:11:52;;;;;;;44.47;8.73;;;15.10;57.10;;;;;;5046767;28;20208;-91
2023/03/20 06:14:18;;;;;;;45.67;8.30;;;15.10;57.10;;;;;;5048313;28;20207;-91
2023/03/20 06:16:45;;;;;;;45.43;8.37;;;15.20;57.80;;;;;;5049207;28;20272;-92
2023/03/20 06:19:12;;;;;;;47.13;8.40;;;15.10;57.10;;;;;;5047265;28;20200;-92
2023/03/20 06:21:39;;;;;;;64.07;9.63;;;15.10;57.10;;;;;;5047611;28;20247;-92
2023/03/20 06:24:07;;;;;;;49.40;9.00;;;15.10;57.10;;;;;;5049665;28;20284;-92
2023/03/20 06:26:34;;;;;;;42.50;7.73;;;15.20;57.20;;;;;;5048663;28;20220;-92
2023/03/20 06:29:02;;;;;;;80.30;10.90;;;15.10;57.10;;;;;;5044737;28;20207;-92
2023/03/20 06:31:30;;;;;;;38.43;7.93;;;15.10;57.10;;;;;;5048473;28;20192;-90
2023/03/20 06:33:57;;;;;;;47.70;8.57;;;15.10;57.10;;;;;;5030710;28;20240;-91
2023/03/20 06:36:24;;;;;;;48.50;8.63;;;15.10;57.10;;;;;;5043709;28;20206;-91
2023/03/20 06:38:51;;;;;;;54.67;8.73;;;15.10;57.20;;;;;;5048209;28;20199;-90
2023/03/20 06:41:18;;;;;;;39.13;7.47;;;15.20;57.20;;;;;;5047446;28;20231;-90
2023/03/20 06:43:45;;;;;;;57.33;9.07;;;15.10;57.10;;;;;;5046171;28;21416;-90
2023/03/20 06:46:13;;;;;;;47.10;8.93;;;15.10;57.10;;;;;;5048696;28;20208;-91
2023/03/20 06:48:40;;;;;;;40.30;7.70;;;15.10;57.20;;;;;;5047929;28;20563;-91
2023/03/20 06:51:07;;;;;;;37.83;7.97;;;15.10;57.10;;;;;;5048208;28;20259;-91
2023/03/20 06:53:35;;;;;;;42.17;8.00;;;15.10;57.10;;;;;;5047264;28;20244;-91
2023/03/20 06:56:02;;;;;;;36.53;7.80;;;15.00;57.10;;;;;;5048929;28;20197;-91
2023/03/20 06:58:30;;;;;;;37.30;7.83;;;15.10;57.10;;;;;;5048689;28;20208;-90
2023/03/20 07:01:00;;;;;;;60.07;9.77;;;15.10;57.20;;;;;;5046973;28;20204;-91
2023/03/20 07:03:29;;;;;;;42.20;7.97;;;15.10;57.10;;;;;;5042587;28;20240;-91
2023/03/20 07:05:55;;;;;;;72.87;9.97;;;15.10;57.20;;;;;;5048073;28;20197;-90
2023/03/20 07:08:22;;;;;;;73.17;10.17;;;15.10;57.20;;;;;;5047556;28;20205;-90
2023/03/20 07:10:50;;;;;;;60.20;9.40;;;15.10;57.20;;;;;;5047781;28;20242;-90
2023/03/20 07:13:17;;;;;;;40.47;8.03;;;15.10;57.20;;;;;;5046406;28;20745;-90
2023/03/20 07:15:44;;;;;;;49.87;8.63;;;15.10;57.20;;;;;;5048534;28;20227;-90
2023/03/20 07:18:11;;;;;;;46.13;8.00;;;15.10;57.20;;;;;;5048673;28;20235;-90
2023/03/20 07:20:39;;;;;;;42.03;7.80;;;15.10;57.30;;;;;;5048238;28;20216;-90
2023/03/20 07:23:06;;;;;;;42.23;7.80;;;15.10;57.20;;;;;;5048091;28;20313;-91
2023/03/20 07:25:42;;;;;;;44.37;7.93;;;15.10;57.20;;;;;;5049074;28;20246;-90
2023/03/20 07:28:09;;;;;;;41.30;7.53;;;15.10;57.20;;;;;;5032989;28;20225;-90
2023/03/20 07:30:36;;;;;;;57.77;9.53;;;15.10;57.20;;;;;;5044816;28;20211;-90
2023/03/20 07:33:03;;;;;;;41.90;8.13;;;15.10;57.20;;;;;;5046964;28;20229;-90
2023/03/20 07:35:31;;;;;;;40.57;7.97;;;15.10;57.20;;;;;;5048473;28;20916;-90
2023/03/20 07:38:01;;;;;;;33.63;7.33;;;15.10;57.20;;;;;;5047382;28;20214;-90
2023/03/20 07:40:28;;;;;;;52.53;8.90;;;15.10;57.20;;;;;;5050540;28;20197;-90
2023/03/20 07:42:55;;;;;;;58.73;8.97;;;15.00;57.20;;;;;;5044483;28;20303;-90
2023/03/20 07:45:22;;;;;;;47.37;8.37;;;15.10;57.20;;;;;;5047475;28;20213;-89
2023/03/20 07:47:49;;;;;;;61.87;9.60;;;15.10;57.20;;;;;;5044736;28;20318;-91
2023/03/20 07:50:19;;;;;;;44.53;8.20;;;15.10;57.20;;;;;;5043719;28;20274;-90
2023/03/20 07:52:47;;;;;;;41.80;7.97;;;15.10;57.20;;;;;;5042615;28;20678;-89
2023/03/20 07:55:16;;;;;;;35.77;7.43;;;15.10;57.30;;;;;;5047308;28;20764;-89
2023/03/20 07:57:44;;;;;;;43.83;8.40;;;15.10;57.30;;;;;;5043387;28;20196;-89
2023/03/20 08:00:12;;;;;;;50.27;8.23;;;15.10;57.30;;;;;;5045385;28;20216;-89
2023/03/20 08:02:39;;;;;;;33.57;7.03;;;15.10;57.30;;;;;;5047718;28;20203;-89
2023/03/20 08:05:06;;;;;;;35.53;7.10;;;15.10;57.30;;;;;;5047051;28;20295;-89
2023/03/20 08:07:41;;;;;;;39.40;7.43;;;15.10;57.30;;;;;;5042554;28;20209;-91
2023/03/20 08:10:09;;;;;;;34.90;6.93;;;15.10;57.30;;;;;;5042082;28;20699;-88
2023/03/20 08:12:37;;;;;;;42.83;8.17;;;15.10;57.30;;;;;;5047573;28;20246;-89
2023/03/20 08:15:05;;;;;;;44.20;8.20;;;15.10;57.30;;;;;;5048444;28;20192;-89
2023/03/20 08:17:32;;;;;;;42.67;8.03;;;15.10;57.30;;;;;;5046489;28;20316;-89
2023/03/20 08:19:59;;;;;;;52.23;9.10;;;15.10;57.30;;;;;;5045007;28;20200;-88
2023/03/20 08:22:26;;;;;;;83.23;10.83;;;15.10;57.30;;;;;;5046180;28;20209;-88
2023/03/20 08:24:53;;;;;;;41.67;7.90;;;15.10;57.30;;;;;;5046639;28;20215;-87
2023/03/20 08:27:20;;;;;;;44.90;8.03;;;15.10;57.30;;;;;;5046545;28;20659;-88
2023/03/20 08:29:48;;;;;;;37.70;7.47;;;15.20;57.40;;;;;;5046239;28;20205;-90
2023/03/20 08:32:15;;;;;;;28.37;6.53;;;15.20;57.40;;;;;;5045143;28;20235;-92
2023/03/20 08:34:42;;;;;;;40.90;7.87;;;15.10;57.30;;;;;;5046255;28;20885;-92
2023/03/20 08:37:11;;;;;;;33.70;6.87;;;15.20;57.40;;;;;;5047341;28;20310;-95
2023/03/20 08:39:38;;;;;;;35.97;7.47;;;15.20;57.40;;;;;;5047101;28;20735;-95
2023/03/20 08:42:05;;;;;;;52.83;9.33;;;15.20;57.50;;;;;;5040727;28;20243;-95
2023/03/20 08:44:49;;;;;;;45.90;8.23;;;15.20;57.50;;;;;;5049464;28;20275;-95
2023/03/20 08:47:16;;;;;;;45.30;8.90;;;15.20;57.50;;;;;;5048313;28;20307;-95
2023/03/20 08:49:43;;;;;;;36.87;7.70;;;15.20;57.50;;;;;;5050192;28;20219;-95
2023/03/20 08:52:11;;;;;;;38.83;8.20;;;15.20;57.50;;;;;;5047083;28;20557;-94
2023/03/20 08:54:41;;;;;;;55.33;9.33;;;15.10;57.40;;;;;;5050092;28;20236;-95
2023/03/20 08:57:08;;;;;;;41.80;8.30;;;15.20;57.50;;;;;;5050455;28;20235;-93
2023/03/20 08:59:35;;;;;;;40.17;8.73;;;15.20;57.50;;;;;;5052373;28;20205;-92
2023/03/20 09:02:04;;;;;;;43.60;8.23;;;15.20;57.50;;;;;;5051243;28;20990;-92
2023/03/20 09:04:31;;;;;;;45.50;8.37;;;15.20;57.50;;;;;;5050893;28;20204;-92
2023/03/20 09:07:00;;;;;;;38.67;7.33;;;15.20;57.50;;;;;;5049204;28;20198;-92
2023/03/20 09:09:28;;;;;;;54.07;8.63;;;15.20;57.50;;;;;;5035795;28;20259;-92
2023/03/20 09:14:44;;;;;;;65.97;9.93;;;15.20;57.50;;;;;;5017118;28;20290;-91
2023/03/20 09:17:13;;;;;;;33.13;7.87;;;15.20;57.50;;;;;;5050718;28;20188;-95
2023/03/20 09:19:43;;;;;;;39.40;8.03;;;15.20;57.50;;;;;;5050284;28;20211;-94
2023/03/20 09:22:12;;;;;;;46.03;8.23;;;15.30;57.60;;;;;;5050537;28;20208;-96
2023/03/20 09:24:39;;;;;;;46.33;8.33;;;15.20;57.50;;;;;;5050520;28;20196;-95
2023/03/20 09:27:06;;;;;;;37.67;7.70;;;15.20;57.50;;;;;;5051490;28;20200;-96
2023/03/20 09:29:33;;;;;;;50.83;8.93;;;15.30;57.60;;;;;;5051840;28;20692;-96
2023/03/20 09:32:01;;;;;;;47.03;8.30;;;15.30;57.60;;;;;;5052718;28;20317;-95
2023/03/20 09:34:29;;;;;;;35.90;7.37;;;15.30;57.60;;;;;;5051902;28;20708;-96
2023/03/20 09:36:56;;;;;;;40.07;8.13;;;15.30;57.60;;;;;;5049316;28;20208;-89
2023/03/20 09:39:23;;;;;;;58.00;8.67;;;15.30;57.60;;;;;;5046934;28;20200;-92
2023/03/20 09:41:51;;;;;;;39.97;7.40;;;15.30;57.70;;;;;;5050698;28;20332;-90
2023/03/20 09:44:32;;;;;;;58.23;8.60;;;15.20;57.60;;;;;;5047565;28;20204;-90
2023/03/20 09:47:08;;;;;;;35.20;7.60;;;15.30;57.70;;;;;;5049506;28;20216;-90
2023/03/20 09:49:48;;;;;;;52.87;8.83;;;15.30;57.70;;;;;;5046306;28;20715;-90
2023/03/20 09:52:21;;;;;;;67.27;10.00;;;15.30;57.70;;;;;;5048756;28;20249;-91
2023/03/20 09:54:51;;;;;;;31.93;7.13;;;15.30;57.70;;;;;;5049252;28;20234;-92
2023/03/20 09:57:22;;;;;;;36.93;7.43;;;15.30;57.70;;;;;;5051288;28;20765;-90
2023/03/20 09:59:51;;;;;;;41.63;7.87;;;15.30;57.70;;;;;;5048813;28;20210;-90
2023/03/20 10:02:24;;;;;;;45.97;8.13;;;15.30;57.70;;;;;;5049907;28;20204;-90
2023/03/20 10:04:55;;;;;;;43.07;7.87;;;15.30;57.70;;;;;;5030641;28;20233;-90
2023/03/20 10:07:23;;;;;;;43.37;8.00;;;15.50;57.90;;;;;;5047978;28;20543;-90
2023/03/20 10:09:50;;;;;;;38.37;8.13;;;15.40;57.70;;;;;;5050329;28;20639;-91
2023/03/20 10:12:46;;;;;;;35.73;7.53;;;15.40;57.70;;;;;;5050487;28;20193;-91
2023/03/20 10:15:20;;;;;;;36.80;7.43;;;15.30;57.70;;;;;;5046789;28;20222;-90
2023/03/20 10:17:58;;;;;;;69.10;10.00;;;15.30;57.70;;;;;;5040082;28;20676;-90
2023/03/20 10:20:33;;;;;;;35.10;7.83;;;15.40;57.80;;;;;;5030583;28;20259;-91
2023/03/20 10:23:06;;;;;;;38.83;7.53;;;15.40;57.80;;;;;;5041857;28;20201;-90
2023/03/20 10:25:36;;;;;;;40.37;7.93;;;15.40;57.80;;;;;;5048624;28;20205;-90
2023/03/20 10:28:11;;;;;;;44.07;8.53;;;15.40;57.80;;;;;;5046831;28;20379;-90
2023/03/20 10:31:01;;;;;;;45.73;8.77;;;15.40;57.80;;;;;;5047542;28;20667;-91
2023/03/20 10:33:47;;;;;;;51.37;8.80;;;15.40;57.80;;;;;;5039209;28;21285;-91
2023/03/20 10:36:28;;;;;;;44.63;8.63;;;15.40;57.80;;;;;;5032310;28;20213;-90
2023/03/20 10:39:01;;;;;;;33.23;7.27;;;15.40;57.80;;;;;;5043968;28;20202;-91
2023/03/20 10:41:32;;;;;;;75.27;10.83;;;15.40;57.80;;;;;;5048115;28;20220;-90
2023/03/20 10:44:10;;;;;;;37.30;8.10;;;15.40;57.90;;;;;;5048532;28;20210;-90
2023/03/20 10:46:48;;;;;;;101.47;12.27;;;15.50;57.90;;;;;;5047532;28;20246;-90
2023/03/20 10:49:20;;;;;;;35.00;8.10;;;15.50;58.00;;;;;;5048146;28;20747;-90
2023/03/20 10:51:54;;;;;;;46.27;8.33;;;15.50;58.00;;;;;;5048622;28;20273;-90
2023/03/20 10:54:27;;;;;;;42.57;8.30;;;15.40;57.90;;;;;;5038708;28;20237;-90
2023/03/20 10:56:56;;;;;;;50.87;8.27;;;15.50;58.00;;;;;;5049234;28;20214;-90
2023/03/20 10:59:27;;;;;;;40.63;8.07;;;15.50;58.00;;;;;;5046122;28;20208;-91
2023/03/20 11:01:56;;;;;;;38.90;8.20;;;15.50;58.00;;;;;;5049397;28;20228;-91
2023/03/20 11:04:26;;;;;;;34.37;8.43;;;15.50;58.00;;;;;;5047242;28;20981;-92
2023/03/20 11:07:02;;;;;;;39.93;8.17;;;15.50;58.00;;;;;;5035615;28;20214;-92
2023/03/20 11:09:31;;;;;;;41.00;8.37;;;15.50;58.00;;;;;;5048981;28;20308;-91
2023/03/20 11:11:59;;;;;;;41.63;8.50;;;15.60;58.00;;;;;;5045138;28;20214;-92
2023/03/20 11:14:33;;;;;;;42.07;8.27;;;15.60;58.10;;;;;;5048207;28;20228;-92
2023/03/20 11:17:02;;;;;;;46.40;8.63;;;15.50;58.00;;;;;;5048008;28;20215;-94
2023/03/20 11:19:33;;;;;;;44.03;8.03;;;15.60;58.10;;;;;;5044453;28;20223;-91
2023/03/20 11:22:08;;;;;;;36.07;7.63;;;15.60;58.10;;;;;;5047626;28;20239;-90
2023/03/20 11:24:39;;;;;;;58.47;9.20;;;15.50;58.00;;;;;;5040229;28;20208;-90
2023/03/20 11:27:09;;;;;;;47.30;8.33;;;15.60;58.60;;;;;;5041377;28;20644;-90
2023/03/20 11:29:36;;;;;;;45.23;8.23;;;15.60;58.00;;;;;;5047135;28;20657;-92
2023/03/20 11:32:07;;;;;;;32.60;7.17;;;15.70;58.10;;;;;;5046301;28;20601;-91
2023/03/20 11:34:39;;;;;;;42.87;7.37;;;15.60;58.00;;;;;;5047091;28;20228;-90
2023/03/20 11:37:23;;;;;;;45.67;8.30;;;15.60;58.00;;;;;;5046514;28;20252;-90
2023/03/20 11:40:00;;;;;;;33.87;7.50;;;15.60;58.10;;;;;;5047150;28;20609;-91
2023/03/20 11:42:30;;;;;;;43.03;8.07;;;15.60;58.00;;;;;;5046487;28;20230;-90
2023/03/20 11:45:02;;;;;;;84.70;10.97;;;15.70;58.10;;;;;;5044268;28;20207;-89
2023/03/20 11:47:33;;;;;;;40.10;7.77;;;15.70;58.10;;;;;;5045522;28;20308;-90
2023/03/20 11:50:02;;;;;;;40.00;7.40;;;15.70;58.10;;;;;;5045660;28;20757;-90
2023/03/20 11:52:33;;;;;;;34.53;7.10;;;15.70;58.10;;;;;;5047351;28;20212;-90
2023/03/20 11:55:04;;;;;;;49.23;8.47;;;15.70;58.10;;;;;;5044597;28;20596;-94
2023/03/20 11:57:44;;;;;;;63.13;9.43;;;15.70;58.10;;;;;;5041777;28;20212;-92
2023/03/20 12:00:19;;;;;;;40.93;7.37;;;15.70;58.10;;;;;;5045891;28;20228;-90
2023/03/20 12:02:49;;;;;;;49.93;8.50;;;15.70;58.10;;;;;;5048060;28;20294;-91
2023/03/20 12:05:29;;;;;;;36.67;7.33;;;15.70;58.10;;;;;;5046393;28;20259;-91
2023/03/20 12:08:01;;;;;;;36.33;7.73;;;15.80;58.20;;;;;;5048417;28;20709;-90
2023/03/20 12:10:32;;;;;;;29.40;6.57;;;15.80;58.20;;;;;;5047619;28;20284;-92
2023/03/20 12:13:03;;;;;;;50.90;8.40;;;15.80;58.20;;;;;;5045150;28;20204;-92
2023/03/20 12:15:34;;;;;;;49.63;8.40;;;15.80;58.20;;;;;;5031003;28;20236;-90
2023/03/20 12:18:03;;;;;;;42.00;7.73;;;15.90;58.30;;;;;;5047592;28;20208;-93
2023/03/20 12:20:35;;;;;;;33.97;7.50;;;15.90;58.20;;;;;;5047235;28;20673;-91
2023/03/20 12:23:13;;;;;;;40.97;7.93;;;15.90;58.20;;;;;;5047315;28;20204;-91
2023/03/20 12:25:47;;;;;;;27.43;6.63;;;15.70;58.10;;;;;;5052856;28;20740;-90
2023/03/20 12:28:20;;;;;;;46.90;7.93;;;15.90;58.30;;;;;;5051901;28;20253;-92
2023/03/20 12:30:58;;;;;;;31.33;6.80;;;15.90;58.30;;;;;;5053282;28;20202;-92
2023/03/20 12:33:37;;;;;;;69.97;10.07;;;15.90;58.30;;;;;;5050793;28;20201;-94
2023/03/20 12:36:34;;;;;;;49.33;7.80;;;15.90;58.30;;;;;;5051713;28;20221;-94
2023/03/20 12:39:14;;;;;;;48.17;7.67;;;15.90;58.20;;;;;;5052822;28;20686;-93
2023/03/20 12:41:52;;;;;;;60.17;9.40;;;15.90;58.20;;;;;;5049814;28;20265;-94
2023/03/20 12:44:39;;;;;;;35.53;7.30;;;16.00;58.30;;;;;;5049855;28;20224;-92
2023/03/20 12:47:23;;;;;;;39.07;7.37;;;16.00;58.30;;;;;;5052594;28;20211;-89
2023/03/20 12:50:00;;;;;;;39.73;8.00;;;16.00;58.30;;;;;;5052025;28;20233;-95
2023/03/20 12:52:39;;;;;;;31.27;6.73;;;16.00;58.30;;;;;;5053163;28;20200;-93
2023/03/20 12:55:54;;;;;;;42.73;8.23;;;16.00;58.30;;;;;;5051140;28;20575;-91
2023/03/20 12:58:29;;;;;;;32.20;6.87;;;16.10;58.40;;;;;;5029216;28;20660;-91
2023/03/20 13:01:03;;;;;;;53.23;8.80;;;16.00;58.30;;;;;;5050036;28;20307;-90